Time;durP1;ratioP1;P1;durP2;ratioP2;P2;SDS_P1;SDS_P2;PMS_P1;PMS_P2;Temp;Humidity;BMP_temperature;BMP_pressure;BME280_temperature;BME280_humidity;BME280_pressure;Samples;Min_cycle;Max_cycle;Signal;HPM_P1;HPM_P2
2022/10/07 00:00:22;;;;;;;11.70;8.75;;;;;;;11.89;100.00;99513.91;1780389;80;21538;-84
2022/10/07 00:02:49;;;;;;;12.70;7.20;;;;;;;11.80;100.00;99512.98;1780025;79;20929;-86
2022/10/07 00:05:16;;;;;;;16.80;7.67;;;;;;;11.68;100.00;99512.22;1780468;80;20861;-85
2022/10/07 00:07:42;;;;;;;13.78;7.15;;;;;;;11.54;100.00;99516.39;1780224;80;21071;-85
2022/10/07 00:10:08;;;;;;;10.48;6.55;;;;;;;11.49;100.00;99517.66;1780547;80;21178;-85
2022/10/07 00:12:34;;;;;;;15.68;6.87;;;;;;;11.41;100.00;99515.36;1780228;80;21048;-85
2022/10/07 00:15:00;;;;;;;10.25;7.15;;;;;;;11.35;100.00;99520.42;1780500;80;20980;-86
2022/10/07 00:17:26;;;;;;;11.03;7.25;;;;;;;11.28;100.00;99521.97;1779989;80;20834;-86
2022/10/07 00:19:51;;;;;;;13.68;8.08;;;;;;;11.20;100.00;99522.38;1780615;80;20941;-85
2022/10/07 00:22:17;;;;;;;15.78;8.25;;;;;;;11.16;100.00;99522.58;1757592;80;22561;-84
2022/10/07 00:24:43;;;;;;;13.48;9.00;;;;;;;11.13;100.00;99514.41;1742331;82;20867;-85
2022/10/07 00:27:09;;;;;;;15.85;9.35;;;;;;;11.17;100.00;99522.86;1742405;82;20930;-85
2022/10/07 00:29:35;;;;;;;14.83;9.98;;;;;;;11.18;100.00;99514.47;1742375;82;21513;-85
2022/10/07 00:32:01;;;;;;;15.05;9.45;;;;;;;11.22;100.00;99508.03;1742235;81;20876;-86
2022/10/07 00:34:27;;;;;;;16.00;9.90;;;;;;;11.22;100.00;99510.20;1742471;82;21303;-86
2022/10/07 00:36:53;;;;;;;18.40;10.53;;;;;;;11.18;100.00;99511.75;1742307;82;20847;-84
2022/10/07 00:39:19;;;;;;;18.05;11.12;;;;;;;11.13;100.00;99510.33;1741975;82;20895;-85
2022/10/07 00:41:49;;;;;;;14.53;9.40;;;;;;;11.06;100.00;99508.31;1742250;82;21021;-86
2022/10/07 00:44:35;;;;;;;15.43;9.98;;;;;;;11.00;100.00;99506.58;1742008;82;20990;-86
2022/10/07 00:47:12;;;;;;;17.42;9.28;;;;;;;10.96;100.00;99507.62;1742228;82;21027;-86
2022/10/07 00:50:09;;;;;;;21.93;12.70;;;;;;;10.89;100.00;99500.70;1742365;82;20986;-85
2022/10/07 00:52:43;;;;;;;18.50;12.82;;;;;;;10.89;100.00;99498.00;1742207;82;21510;-86
2022/10/07 00:55:12;;;;;;;20.08;9.95;;;;;;;10.73;100.00;99495.55;1742272;82;21465;-86
2022/10/07 00:57:38;;;;;;;13.55;9.35;;;;;;;10.63;100.00;99492.14;1742253;82;21050;-85
2022/10/07 01:00:05;;;;;;;12.73;9.18;;;;;;;10.59;100.00;99491.50;1736596;82;21158;-85
2022/10/07 01:02:31;;;;;;;14.38;9.35;;;;;;;10.51;100.00;99483.26;1753610;81;21018;-86
2022/10/07 01:04:58;;;;;;;15.48;10.48;;;;;;;10.44;100.00;99487.47;1753980;81;21675;-86
2022/10/07 01:07:24;;;;;;;17.32;9.85;;;;;;;10.37;100.00;99491.39;1773498;80;20960;-85
2022/10/07 01:09:50;;;;;;;14.98;9.80;;;;;;;10.32;100.00;99488.03;1737292;82;20864;-85
2022/10/07 01:12:51;;;;;;;12.70;10.03;;;;;;;10.25;100.00;99482.47;1748101;80;21146;-85
2022/10/07 01:15:34;;;;;;;15.78;10.15;;;;;;;10.21;100.00;99485.36;1780495;80;20969;-85
2022/10/07 01:18:20;;;;;;;16.35;9.48;;;;;;;10.15;100.00;99483.89;1780006;80;20953;-86
2022/10/07 01:21:06;;;;;;;14.85;9.55;;;;;;;10.10;100.00;99478.39;1777783;79;21279;-86
2022/10/07 01:24:10;;;;;;;18.07;10.35;;;;;;;10.10;100.00;99485.16;1780171;80;21012;-85
2022/10/07 01:26:54;;;;;;;16.52;9.03;;;;;;;10.10;100.00;99480.28;1779747;80;21149;-85
2022/10/07 01:29:46;;;;;;;13.72;9.48;;;;;;;10.11;100.00;99476.50;1773698;79;21004;-85
2022/10/07 01:32:21;;;;;;;19.90;10.55;;;;;;;10.05;100.00;99476.10;1780305;80;20974;-86
2022/10/07 01:34:47;;;;;;;17.50;11.10;;;;;;;9.97;100.00;99476.48;1780631;80;21008;-84
2022/10/07 01:37:15;;;;;;;14.40;9.98;;;;;;;9.88;100.00;99471.44;1780337;80;20849;-85
2022/10/07 01:39:54;;;;;;;19.43;10.00;;;;;;;9.83;100.00;99471.89;1775664;80;21277;-86
2022/10/07 01:42:20;;;;;;;15.35;10.55;;;;;;;9.77;100.00;99478.25;1766102;80;21068;-85
2022/10/07 01:44:50;;;;;;;15.70;10.20;;;;;;;9.72;100.00;99472.19;1778233;80;20896;-85
2022/10/07 01:47:16;;;;;;;17.87;10.50;;;;;;;9.66;100.00;99469.10;1780181;79;21166;-85
2022/10/07 01:49:42;;;;;;;15.32;9.85;;;;;;;9.56;100.00;99469.68;1780445;79;20897;-85
2022/10/07 01:52:32;;;;;;;17.17;10.72;;;;;;;9.52;100.00;99471.77;1780297;80;21146;-84
2022/10/07 01:55:27;;;;;;;14.10;9.90;;;;;;;9.46;100.00;99461.34;1780274;79;20938;-85
2022/10/07 01:58:13;;;;;;;21.02;8.98;;;;;;;9.41;100.00;99469.38;1780377;80;21452;-86
2022/10/07 02:00:50;;;;;;;16.15;9.25;;;;;;;9.31;100.00;99461.00;1780223;79;21509;-85
2022/10/07 02:03:36;;;;;;;17.82;9.60;;;;;;;9.20;100.00;99455.08;1779344;80;21004;-86
2022/10/07 02:06:26;;;;;;;19.25;10.38;;;;;;;9.13;100.00;99450.31;1780099;79;21002;-86
2022/10/07 02:08:53;;;;;;;17.67;10.45;;;;;;;9.07;100.00;99452.63;1777823;79;21012;-85
2022/10/07 02:11:26;;;;;;;18.20;9.93;;;;;;;9.02;100.00;99450.08;1780422;79;21011;-85
2022/10/07 02:14:10;;;;;;;17.75;10.10;;;;;;;9.00;100.00;99445.98;1780119;80;20968;-84
2022/10/07 02:16:48;;;;;;;21.77;11.53;;;;;;;9.00;100.00;99452.73;1749593;80;21051;-86
2022/10/07 02:19:21;;;;;;;14.43;10.05;;;;;;;9.04;100.00;99447.14;1780343;79;21422;-85
2022/10/07 02:21:49;;;;;;;19.73;11.30;;;;;;;9.06;100.00;99447.75;1779559;79;20965;-86
2022/10/07 02:24:15;;;;;;;21.48;11.40;;;;;;;9.08;100.00;99445.63;1780061;79;21460;-85
2022/10/07 02:26:41;;;;;;;15.68;10.98;;;;;;;9.08;100.00;99433.99;1780500;80;20980;-85
2022/10/07 02:29:07;;;;;;;17.00;11.00;;;;;;;9.05;100.00;99437.44;1780199;80;20857;-85
2022/10/07 02:31:33;;;;;;;18.55;11.08;;;;;;;9.01;100.00;99438.98;1750073;80;21880;-86
2022/10/07 02:34:00;;;;;;;18.45;10.55;;;;;;;8.94;100.00;99440.15;1780289;79;20853;-84
2022/10/07 02:36:32;;;;;;;20.62;10.43;;;;;;;8.91;100.00;99437.39;1780745;80;21055;-85
2022/10/07 02:38:59;;;;;;;16.80;11.12;;;;;;;8.87;100.00;99429.44;1780139;80;20949;-85
2022/10/07 02:41:45;;;;;;;15.50;10.82;;;;;;;8.83;100.00;99428.81;1750418;80;21409;-85
2022/10/07 02:44:30;;;;;;;18.30;12.28;;;;;;;8.79;100.00;99431.67;1780495;78;21039;-85
2022/10/07 02:47:02;;;;;;;14.33;9.88;;;;;;;8.70;100.00;99430.66;1780480;80;21011;-85
2022/10/07 02:49:29;;;;;;;18.55;11.18;;;;;;;8.66;100.00;99428.67;1750202;80;21039;-85
2022/10/07 02:52:01;;;;;;;18.50;11.88;;;;;;;8.60;100.00;99429.59;1779759;80;21027;-86
2022/10/07 02:54:35;;;;;;;17.98;11.53;;;;;;;8.54;100.00;99427.81;1738387;81;21010;-84
2022/10/07 02:57:01;;;;;;;21.62;11.35;;;;;;;8.44;100.00;99433.26;1776674;80;21270;-85
2022/10/07 02:59:27;;;;;;;17.45;11.60;;;;;;;8.44;100.00;99433.26;1738405;81;20883;-85
2022/10/07 03:01:55;;;;;;;20.35;11.25;;;;;;;8.40;100.00;99428.04;1742456;82;21542;-85
2022/10/07 03:04:22;;;;;;;23.18;11.83;;;;;;;8.33;100.00;99421.05;1760537;80;21008;-85
2022/10/07 03:06:48;;;;;;;22.70;10.98;;;;;;;8.29;100.00;99423.91;1780520;80;20996;-84
2022/10/07 03:09:14;;;;;;;25.92;13.40;;;;;;;8.23;100.00;99423.50;1780226;79;21160;-85
2022/10/07 03:11:40;;;;;;;22.42;12.53;;;;;;;8.16;100.00;99418.19;1780414;80;20920;-84
2022/10/07 03:14:06;;;;;;;20.65;13.03;;;;;;;8.12;100.00;99422.41;1780342;80;20861;-84
2022/10/07 03:16:32;;;;;;;21.73;12.88;;;;;;;8.10;100.00;99420.45;1749700;80;20984;-86
2022/10/07 03:18:58;;;;;;;23.30;13.45;;;;;;;8.09;100.00;99414.75;1780445;80;20877;-86
2022/10/07 03:21:24;;;;;;;20.50;12.07;;;;;;;8.10;100.00;99422.62;1780402;80;21367;-85
2022/10/07 03:23:51;;;;;;;23.50;12.70;;;;;;;8.13;100.00;99422.70;1780210;80;20996;-86
2022/10/07 03:26:18;;;;;;;17.50;11.90;;;;;;;8.12;100.00;99417.02;1780350;80;21533;-85
2022/10/07 03:28:44;;;;;;;33.25;12.85;;;;;;;8.14;100.00;99414.37;1780450;80;20964;-86
2022/10/07 03:31:10;;;;;;;22.45;12.40;;;;;;;8.20;100.00;99415.30;1780669;80;20932;-84
2022/10/07 03:33:37;;;;;;;24.47;13.03;;;;;;;8.25;100.00;99410.58;1780341;80;21299;-85
2022/10/07 03:36:04;;;;;;;23.85;12.95;;;;;;;8.30;100.00;99413.42;1780684;80;21425;-85
2022/10/07 03:38:31;;;;;;;23.30;14.63;;;;;;;8.37;100.00;99418.20;1780342;80;21012;-85
2022/10/07 03:40:57;;;;;;;25.70;15.60;;;;;;;8.41;100.00;99404.55;1780721;79;21785;-85
2022/10/07 03:43:24;;;;;;;26.10;14.95;;;;;;;8.41;100.00;99404.02;1780327;80;20959;-84
2022/10/07 03:45:50;;;;;;;30.10;14.90;;;;;;;8.43;100.00;99405.13;1780643;80;21061;-85
2022/10/07 03:48:16;;;;;;;24.57;13.48;;;;;;;8.43;100.00;99403.78;1780462;80;20989;-85
2022/10/07 03:50:48;;;;;;;26.25;13.48;;;;;;;8.43;100.00;99406.48;1750148;80;20889;-84
2022/10/07 03:53:14;;;;;;;22.95;14.35;;;;;;;8.42;100.00;99402.14;1775149;80;21428;-85
2022/10/07 03:55:40;;;;;;;25.80;14.63;;;;;;;8.42;100.00;99407.02;1780582;80;20945;-85
2022/10/07 03:58:06;;;;;;;27.13;14.80;;;;;;;8.44;100.00;99401.38;1780529;80;21077;-85
2022/10/07 04:00:32;;;;;;;29.98;16.02;;;;;;;8.46;100.00;99408.73;1749160;79;20891;-85
2022/10/07 04:02:58;;;;;;;31.30;14.90;;;;;;;8.47;100.00;99403.09;1733775;82;20945;-85
2022/10/07 04:05:24;;;;;;;29.37;15.65;;;;;;;8.52;100.00;99401.56;1772384;80;20916;-85
2022/10/07 04:07:51;;;;;;;32.63;16.10;;;;;;;8.51;100.00;99398.05;1780443;80;20869;-85
2022/10/07 04:10:18;;;;;;;25.75;15.48;;;;;;;8.49;100.00;99398.81;1780739;80;21739;-85
2022/10/07 04:12:44;;;;;;;31.07;16.62;;;;;;;8.51;100.00;99394.52;1769227;80;21005;-86
2022/10/07 04:15:13;;;;;;;28.77;17.77;;;;;;;8.51;100.00;99394.52;1774871;80;21052;-86
2022/10/07 04:17:39;;;;;;;;;;;;;;;8.46;100.00;99375.80;1783156;80;21083;-85
2022/10/07 04:20:06;;;;;;;32.55;16.90;;;;;;;8.52;100.00;99384.00;1780691;79;20183;-84
2022/10/07 04:22:32;;;;;;;36.50;17.85;;;;;;;8.53;100.00;99384.30;1776984;80;21019;-85
2022/10/07 04:27:42;;;;;;;27.52;15.15;;;;;;;8.55;100.00;99383.56;1780587;79;21028;-85
2022/10/07 04:30:10;;;;;;;26.20;16.42;;;;;;;8.56;100.00;99377.91;1780595;80;20924;-85
2022/10/07 04:32:36;;;;;;;34.48;17.98;;;;;;;8.58;100.00;99374.97;1776434;80;21008;-85
2022/10/07 04:35:02;;;;;;;29.77;16.20;;;;;;;8.59;100.00;99379.31;1748212;82;21136;-84
2022/10/07 04:37:28;;;;;;;35.23;17.27;;;;;;;8.60;100.00;99376.37;1746834;81;21015;-84
2022/10/07 04:39:55;;;;;;;27.90;15.60;;;;;;;8.61;100.00;99377.20;1737379;82;21000;-85
2022/10/07 04:45:07;;;;;;;34.92;17.37;;;;;;;8.63;100.00;99372.38;1737780;81;20973;-84
2022/10/07 04:47:34;;;;;;;28.17;16.90;;;;;;;8.66;100.00;99370.05;1737249;82;21879;-85
2022/10/07 04:50:04;;;;;;;28.15;14.85;;;;;;;8.69;100.00;99366.05;1736771;80;21011;-85
2022/10/07 04:52:30;;;;;;;25.97;15.58;;;;;;;8.73;100.00;99365.35;1761278;80;21050;-85
2022/10/07 04:54:56;;;;;;;27.15;16.20;;;;;;;8.64;100.00;99354.60;1756316;80;22171;-84
2022/10/07 04:57:22;;;;;;;29.15;17.23;;;;;;;8.64;100.00;99354.60;1756551;79;21133;-85
2022/10/07 04:59:48;;;;;;;33.85;17.17;;;;;;;8.67;100.00;99358.70;1762654;79;21105;-86
2022/10/07 05:02:14;;;;;;;29.87;14.40;;;;;;;8.72;100.00;99362.36;1740541;81;21617;-84
2022/10/07 05:04:40;;;;;;;28.35;14.68;;;;;;;8.75;100.00;99357.00;1764393;79;20884;-84
2022/10/07 05:07:07;;;;;;;24.25;14.63;;;;;;;8.73;100.00;99360.48;1751652;80;20875;-84
2022/10/07 05:09:33;;;;;;;27.90;16.23;;;;;;;8.72;100.00;99356.95;1749425;79;21016;-85
2022/10/07 05:11:59;;;;;;;22.30;14.07;;;;;;;8.71;100.00;99358.52;1774828;79;21316;-85
2022/10/07 05:14:25;;;;;;;32.33;15.63;;;;;;;8.74;100.00;99364.83;1782345;79;20907;-85
2022/10/07 05:16:51;;;;;;;21.80;15.00;;;;;;;8.77;100.00;99357.59;1707962;82;20968;-85
2022/10/07 05:19:17;;;;;;;34.40;15.00;;;;;;;8.80;100.00;99359.80;1748766;80;20954;-86
2022/10/07 05:21:43;;;;;;;32.65;14.40;;;;;;;8.79;100.00;99354.11;1750793;80;21067;-85
2022/10/07 05:24:09;;;;;;;22.07;14.50;;;;;;;8.79;100.00;99350.05;1769350;80;21186;-86
2022/10/07 05:26:35;;;;;;;21.60;13.25;;;;;;;8.78;100.00;99355.70;1761735;79;22774;-84
2022/10/07 05:29:02;;;;;;;22.02;11.97;;;;;;;8.81;100.00;99354.72;1763859;80;20955;-85
2022/10/07 05:31:28;;;;;;;23.00;12.68;;;;;;;8.84;100.00;99351.53;1756291;80;21041;-85
2022/10/07 05:33:55;;;;;;;22.73;14.20;;;;;;;8.87;100.00;99345.64;1750792;79;21073;-84
2022/10/07 05:36:21;;;;;;;22.77;12.60;;;;;;;8.82;100.00;99347.44;1752629;80;21906;-84
2022/10/07 05:38:47;;;;;;;20.43;11.97;;;;;;;8.88;100.00;99352.69;1761225;79;21002;-85
2022/10/07 05:41:13;;;;;;;19.27;13.18;;;;;;;8.91;100.00;99358.18;1771026;79;20935;-84
2022/10/07 05:43:41;;;;;;;19.85;11.50;;;;;;;8.94;100.00;99353.11;1781308;79;21441;-86
2022/10/07 05:46:12;;;;;;;17.57;11.30;;;;;;;8.97;100.00;99355.86;1779604;79;21071;-84
2022/10/07 05:48:38;;;;;;;19.62;11.08;;;;;;;8.97;100.00;99355.86;1777864;79;21332;-86
2022/10/07 05:51:06;;;;;;;21.75;13.38;;;;;;;8.99;100.00;99354.59;1749311;80;21031;-85
2022/10/07 05:53:33;;;;;;;23.05;11.53;;;;;;;9.04;100.00;99353.86;1772995;79;20959;-85
2022/10/07 05:56:08;;;;;;;25.80;13.80;;;;;;;9.08;100.00;99355.05;1776293;79;21443;-84
2022/10/07 05:58:35;;;;;;;29.42;17.00;;;;;;;9.12;100.00;99350.79;1722181;81;21110;-86
2022/10/07 06:01:02;;;;;;;22.20;14.55;;;;;;;9.19;100.00;99356.08;1759706;79;21144;-84
2022/10/07 06:03:28;;;;;;;22.98;13.53;;;;;;;9.21;100.00;99359.36;1741759;80;21467;-84
2022/10/07 06:05:54;;;;;;;23.70;13.13;;;;;;;9.23;100.00;99357.26;1747372;80;20867;-85
2022/10/07 06:08:21;;;;;;;21.37;13.15;;;;;;;9.30;100.00;99361.45;1748080;80;21053;-85
2022/10/07 06:13:31;;;;;;;23.90;13.13;;;;;;;9.39;100.00;99366.48;1683690;82;21062;-85
2022/10/07 06:16:07;;;;;;;24.70;14.33;;;;;;;9.43;100.00;99366.31;1719491;81;20872;-86
2022/10/07 06:18:37;;;;;;;21.93;14.07;;;;;;;9.49;100.00;99367.55;1754533;80;22017;-85
2022/10/07 06:21:03;;;;;;;27.95;15.60;;;;;;;9.53;100.00;99363.28;1749587;80;21544;-85
2022/10/07 06:23:29;;;;;;;25.60;15.80;;;;;;;9.58;100.00;99362.04;1747932;79;21055;-86
2022/10/07 06:26:00;;;;;;;29.90;17.12;;;;;;;9.70;100.00;99363.88;1775774;79;21557;-86
2022/10/07 06:28:35;;;;;;;37.08;20.32;;;;;;;9.77;100.00;99361.85;1756642;80;21038;-85
2022/10/07 06:31:07;;;;;;;34.20;18.42;;;;;;;9.87;100.00;99362.03;1737089;80;20972;-86
2022/10/07 06:33:33;;;;;;;30.88;15.60;;;;;;;9.95;100.00;99361.64;1746481;82;21016;-86
2022/10/07 06:36:06;;;;;;;33.33;20.17;;;;;;;10.02;100.00;99362.33;1746980;81;20992;-86
2022/10/07 06:38:32;;;;;;;35.33;18.82;;;;;;;10.11;100.00;99354.63;1755263;80;21306;-85
2022/10/07 06:41:00;;;;;;;31.05;17.75;;;;;;;10.20;100.00;99351.80;1762069;80;20982;-85
2022/10/07 06:43:29;;;;;;;32.90;17.65;;;;;;;10.21;100.00;99353.97;1712622;81;26330;-86
2022/10/07 06:46:04;;;;;;;36.40;19.73;;;;;;;10.25;100.00;99349.19;1741724;79;21451;-85
2022/10/07 06:48:28;;;;;;;30.97;19.17;;;;;;;10.37;100.00;99349.13;1738013;78;21174;-85
2022/10/07 06:50:57;;;;;;;30.48;18.30;;;;;;;10.46;100.00;99343.59;1750298;81;21266;-86
2022/10/07 06:53:23;;;;;;;31.60;18.17;;;;;;;10.47;100.00;99344.41;1743348;79;21066;-85
2022/10/07 06:55:53;;;;;;;29.65;19.65;;;;;;;10.51;100.00;99340.13;1750088;79;20987;-85
2022/10/07 06:58:20;;;;;;;34.98;19.60;;;;;;;10.56;100.00;99343.75;1758544;79;21419;-85
2022/10/07 07:00:48;;;;;;;32.60;19.00;;;;;;;10.65;100.00;99342.80;1763148;80;21033;-85
2022/10/07 07:03:17;;;;;;;34.27;19.80;;;;;;;10.78;100.00;99340.28;1742232;80;21275;-85
2022/10/07 07:05:43;;;;;;;36.33;19.30;;;;;;;10.85;100.00;99333.62;1751218;79;21019;-85
2022/10/07 07:08:09;;;;;;;32.38;18.80;;;;;;;10.89;100.00;99338.82;1746653;79;20935;-86
2022/10/07 07:10:39;;;;;;;31.50;19.37;;;;;;;10.96;100.00;99334.58;1749933;80;21136;-86
2022/10/07 07:13:06;;;;;;;49.08;21.95;;;;;;;10.97;100.00;99335.68;1737232;82;21020;-85
2022/10/07 07:15:33;;;;;;;34.38;22.50;;;;;;;11.15;100.00;99333.74;1736410;81;21312;-85
2022/10/07 07:17:59;;;;;;;77.92;37.35;;;;;;;11.28;100.00;99327.95;1744054;80;21707;-85
2022/10/07 07:20:25;;;;;;;31.17;20.82;;;;;;;11.33;100.00;99323.93;1748740;79;20893;-85
2022/10/07 07:22:51;;;;;;;31.37;20.77;;;;;;;12.23;100.00;99318.39;1738671;80;20963;-85
2022/10/07 07:25:18;;;;;;;30.15;20.92;;;;;;;13.34;100.00;99313.41;1747012;79;21532;-85
2022/10/07 07:27:48;;;;;;;25.90;16.57;;;;;;;14.21;100.00;99314.95;1740677;79;21129;-85
2022/10/07 07:30:13;;;;;;;25.12;14.70;;;;;;;15.12;100.00;99307.20;1745524;80;21010;-87
2022/10/07 07:32:39;;;;;;;23.55;15.20;;;;;;;16.33;100.00;99310.39;1755949;79;21642;-87
2022/10/07 07:35:06;;;;;;;24.00;15.45;;;;;;;17.24;100.00;99303.19;1733779;81;21017;-86
2022/10/07 07:37:32;;;;;;;22.00;14.90;;;;;;;17.96;100.00;99302.54;1738418;80;21051;-86
2022/10/07 07:39:58;;;;;;;18.48;13.40;;;;;;;18.64;100.00;99299.79;1737207;80;21058;-87
2022/10/07 07:42:27;;;;;;;18.40;14.33;;;;;;;19.43;98.73;99297.73;1743432;79;21729;-87
2022/10/07 07:44:54;;;;;;;22.67;12.90;;;;;;;20.06;93.70;99302.95;1735686;81;21001;-87
2022/10/07 07:47:21;;;;;;;15.72;11.85;;;;;;;20.38;89.27;99301.09;1749970;80;21161;-87
2022/10/07 07:49:49;;;;;;;16.95;12.90;;;;;;;20.77;89.36;99292.16;1745836;80;22056;-87
2022/10/07 07:52:15;;;;;;;17.25;12.45;;;;;;;21.40;86.98;99292.34;1738398;80;21081;-86
2022/10/07 07:54:41;;;;;;;16.07;12.37;;;;;;;21.63;81.27;99289.72;1738847;79;20991;-86
2022/10/07 07:57:09;;;;;;;18.82;13.05;;;;;;;21.79;82.23;99296.12;1741426;80;21101;-88
2022/10/07 07:59:36;;;;;;;14.10;10.63;;;;;;;22.48;78.46;99288.70;1749963;79;21113;-86
2022/10/07 08:02:02;;;;;;;17.02;10.82;;;;;;;22.92;72.67;99294.14;1754662;79;21109;-86
2022/10/07 08:04:29;;;;;;;14.65;10.63;;;;;;;22.75;74.41;99292.20;1745938;80;22029;-88
2022/10/07 08:06:55;;;;;;;18.12;11.88;;;;;;;22.74;72.57;99287.83;1736671;79;21104;-88
2022/10/07 08:09:21;;;;;;;16.73;11.97;;;;;;;22.87;71.25;99281.30;1712255;82;20967;-88
2022/10/07 08:11:47;;;;;;;15.03;11.15;;;;;;;23.03;71.91;99278.23;1756062;80;21059;-88
2022/10/07 08:14:15;;;;;;;17.25;11.57;;;;;;;22.64;70.70;99276.53;1754782;80;21552;-86
2022/10/07 08:16:42;;;;;;;15.18;11.63;;;;;;;22.46;68.89;99278.52;1754931;79;21155;-88
2022/10/07 08:19:09;;;;;;;23.95;12.15;;;;;;;22.08;68.36;99268.76;1721739;82;21520;-87
2022/10/07 08:21:35;;;;;;;17.27;10.95;;;;;;;22.18;68.01;99267.61;1747297;80;21052;-87
2022/10/07 08:24:03;;;;;;;16.65;10.93;;;;;;;22.35;67.38;99264.83;1749600;80;20876;-87
2022/10/07 08:26:30;;;;;;;18.30;11.13;;;;;;;23.10;67.06;99260.33;1756615;80;21492;-87
2022/10/07 08:28:56;;;;;;;17.23;9.93;;;;;;;24.08;66.81;99259.84;1718230;81;21206;-87
2022/10/07 08:31:26;;;;;;;16.05;9.73;;;;;;;25.41;63.25;99252.76;1720656;80;21449;-88
2022/10/07 08:33:50;;;;;;;15.95;10.15;;;;;;;26.05;58.75;99251.34;1718074;80;20970;-88
2022/10/07 08:36:18;;;;;;;10.88;8.55;;;;;;;26.36;59.63;99248.45;1753702;79;21076;-88
2022/10/07 08:38:45;;;;;;;13.40;9.73;;;;;;;27.16;58.31;99246.00;1750351;80;21042;-88
2022/10/07 08:41:45;;;;;;;12.58;9.40;;;;;;;27.69;56.64;99238.14;1717864;81;21116;-88
2022/10/07 08:44:31;;;;;;;11.22;8.03;;;;;;;26.51;54.66;99235.20;1709522;80;21114;-87
2022/10/07 08:47:02;;;;;;;18.17;9.90;;;;;;;24.22;60.05;99236.02;1718851;80;21133;-88
2022/10/07 08:49:40;;;;;;;18.98;8.98;;;;;;;23.30;63.03;99236.05;1728138;80;21060;-86
2022/10/07 08:52:38;;;;;;;16.73;9.78;;;;;;;22.60;61.99;99231.96;1715277;80;21077;-87
2022/10/07 08:55:42;;;;;;;54.15;14.18;;;;;;;21.61;62.97;99224.97;1729609;80;22011;-88
2022/10/07 08:58:54;;;;;;;29.20;10.98;;;;;;;20.55;65.02;99222.21;1758432;79;20967;-87
2022/10/07 09:01:58;;;;;;;15.88;11.28;;;;;;;19.83;67.88;99225.13;1763670;79;21125;-86
2022/10/07 09:04:45;;;;;;;19.52;11.08;;;;;;;19.23;69.38;99217.10;1747096;79;21128;-87
2022/10/07 09:07:18;;;;;;;89.80;24.27;;;;;;;18.93;71.28;99217.73;1743951;80;21041;-86
2022/10/07 09:10:05;;;;;;;27.05;12.55;;;;;;;18.80;73.32;99209.73;1735429;80;21306;-87
2022/10/07 09:12:53;;;;;;;17.98;11.10;;;;;;;18.72;73.70;99211.28;1760562;79;21125;-87
2022/10/07 09:15:42;;;;;;;14.00;10.18;;;;;;;18.58;73.70;99204.36;1757110;79;21150;-87
2022/10/07 09:18:34;;;;;;;12.35;10.25;;;;;;;18.46;74.42;99198.56;1754456;81;21052;-87
2022/10/07 09:20:57;;;;;;;15.78;9.58;;;;;;;18.43;74.94;99199.71;1752070;80;21089;-86
2022/10/07 09:23:30;;;;;;;18.32;9.68;;;;;;;18.39;75.59;99195.40;1751643;79;21295;-86
2022/10/07 09:25:56;;;;;;;13.03;8.23;;;;;;;18.36;75.76;99191.87;1734729;80;21613;-87
2022/10/07 09:28:30;;;;;;;18.37;8.73;;;;;;;18.29;76.71;99188.73;1714357;81;20962;-86
2022/10/07 09:30:58;;;;;;;17.15;9.35;;;;;;;18.26;77.06;99186.57;1725338;80;21038;-86
2022/10/07 09:33:23;;;;;;;11.45;7.65;;;;;;;18.21;77.71;99179.82;1722203;80;21091;-86
2022/10/07 09:35:57;;;;;;;14.53;8.48;;;;;;;18.17;77.40;99182.34;1710136;81;21802;-86
2022/10/07 09:38:37;;;;;;;11.08;8.10;;;;;;;18.18;77.77;99176.29;1748020;80;21089;-87
2022/10/07 09:41:20;;;;;;;25.80;11.25;;;;;;;18.17;77.35;99177.41;1703306;83;21049;-86
2022/10/07 09:43:56;;;;;;;10.85;7.60;;;;;;;18.21;77.42;99174.34;1702846;81;21104;-86
2022/10/07 09:46:49;;;;;;;15.53;8.28;;;;;;;18.18;77.33;99169.44;1709389;81;21048;-86
2022/10/07 09:49:35;;;;;;;15.58;7.70;;;;;;;18.21;77.82;99169.66;1689797;81;21123;-86
2022/10/07 09:52:23;;;;;;;9.00;5.62;;;;;;;18.28;77.48;99167.31;1708799;81;21122;-86
2022/10/07 09:54:57;;;;;;;8.73;5.60;;;;;;;18.47;76.37;99165.08;1724425;81;21024;-86
2022/10/07 09:57:33;;;;;;;14.20;6.87;;;;;;;18.51;75.09;99164.15;1720906;81;21114;-86
2022/10/07 10:00:21;;;;;;;10.28;5.67;;;;;;;18.50;75.28;99159.78;1745930;79;21617;-87
2022/10/07 10:02:54;;;;;;;11.65;5.83;;;;;;;18.57;76.06;99153.89;1738353;80;21611;-86
2022/10/07 10:05:24;;;;;;;8.50;5.20;;;;;;;18.57;76.30;99148.41;1744057;79;21328;-87
2022/10/07 10:08:06;;;;;;;7.87;6.20;;;;;;;18.64;75.65;99143.33;1762200;79;21137;-86
2022/10/07 10:10:33;;;;;;;11.75;5.87;;;;;;;18.70;75.19;99143.48;1772229;79;21470;-86
2022/10/07 10:13:00;;;;;;;8.90;5.72;;;;;;;18.88;74.77;99142.58;1724198;80;20976;-87
2022/10/07 10:15:39;;;;;;;7.72;5.03;;;;;;;19.02;75.30;99141.17;1741129;80;21203;-87
2022/10/07 10:18:23;;;;;;;;;;;;;;;19.05;74.96;99137.80;1748293;80;21033;-86
2022/10/07 10:20:49;;;;;;;9.50;5.55;;;;;;;19.01;74.73;99130.50;1740861;80;20135;-86
2022/10/07 10:23:34;;;;;;;7.67;5.60;;;;;;;18.97;74.41;99124.82;1740372;80;20973;-86
2022/10/07 10:26:24;;;;;;;8.73;5.17;;;;;;;18.99;74.35;99120.38;1738164;80;21101;-86
2022/10/07 10:29:31;;;;;;;6.90;5.37;;;;;;;18.99;74.17;99122.57;1741771;79;21113;-86
2022/10/07 10:32:15;;;;;;;8.30;5.85;;;;;;;18.92;73.26;99112.56;1744376;80;20970;-86
2022/10/07 10:34:59;;;;;;;7.10;4.40;;;;;;;18.96;70.42;99106.69;1749155;79;21039;-87
2022/10/07 10:37:30;;;;;;;5.25;4.75;;;;;;;19.03;72.45;99096.66;1748726;80;21393;-87
2022/10/07 10:40:33;;;;;;;4.97;4.37;;;;;;;19.07;71.28;99094.94;1734041;80;21550;-85
2022/10/07 10:43:29;;;;;;;7.87;5.05;;;;;;;19.16;71.19;99091.70;1739356;80;21136;-87
2022/10/07 10:46:18;;;;;;;13.30;5.87;;;;;;;19.31;71.96;99089.14;1740342;80;21097;-87
2022/10/07 10:49:09;;;;;;;9.13;5.28;;;;;;;19.36;72.25;99080.78;1741071;81;21058;-87
2022/10/07 10:51:47;;;;;;;6.10;4.15;;;;;;;19.31;72.42;99078.98;1740235;81;21023;-85
2022/10/07 10:54:43;;;;;;;9.80;4.50;;;;;;;19.31;69.82;99071.27;1737673;81;21044;-87
2022/10/07 10:57:30;;;;;;;8.15;4.90;;;;;;;19.30;71.20;99055.91;1747507;79;21054;-86
2022/10/07 11:00:13;;;;;;;6.50;4.47;;;;;;;19.40;70.70;99062.00;1741952;79;21133;-87
2022/10/07 11:03:06;;;;;;;9.55;4.70;;;;;;;19.46;70.71;99053.05;1736441;80;21057;-86
2022/10/07 11:05:39;;;;;;;9.48;5.10;;;;;;;19.47;69.33;99053.86;1751276;79;21031;-87
2022/10/07 11:08:21;;;;;;;6.60;4.33;;;;;;;19.52;69.05;99044.93;1751984;79;21077;-87
2022/10/07 11:10:57;;;;;;;7.83;4.90;;;;;;;19.57;69.56;99046.75;1745385;79;21120;-86
2022/10/07 11:13:37;;;;;;;8.53;4.90;;;;;;;19.66;70.47;99036.65;1735740;80;21066;-87
2022/10/07 11:16:13;;;;;;;11.60;4.58;;;;;;;19.69;68.81;99031.88;1748781;79;21023;-86
2022/10/07 11:18:52;;;;;;;9.48;4.97;;;;;;;19.82;70.70;99027.41;1739233;79;21059;-86
2022/10/07 11:21:28;;;;;;;7.08;4.87;;;;;;;19.94;69.52;99027.64;1740553;80;21091;-87
2022/10/07 11:24:00;;;;;;;5.58;4.40;;;;;;;20.10;69.76;99017.03;1751902;79;21050;-87
2022/10/07 11:26:40;;;;;;;8.83;4.72;;;;;;;20.22;69.50;99024.91;1759774;79;21161;-86
2022/10/07 11:29:37;;;;;;;7.92;4.97;;;;;;;20.33;69.35;99017.17;1750179;79;21622;-87
2022/10/07 11:32:25;;;;;;;7.28;4.97;;;;;;;20.35;69.04;99008.62;1761203;79;21440;-86
2022/10/07 11:34:58;;;;;;;;;;;;;;;20.28;69.78;99000.82;1748166;79;21095;-86
2022/10/07 11:37:41;;;;;;;8.75;5.40;;;;;;;20.16;68.39;98995.91;1735026;81;21085;-86
2022/10/07 11:40:07;;;;;;;9.23;5.33;;;;;;;20.18;70.40;98993.67;1719580;80;21125;-86
2022/10/07 11:42:41;;;;;;;10.45;4.72;;;;;;;20.20;70.98;98989.22;1736158;80;21042;-86
2022/10/07 11:45:14;;;;;;;6.20;4.58;;;;;;;20.15;69.51;98989.36;1739352;79;21630;-86
2022/10/07 11:47:48;;;;;;;6.95;5.15;;;;;;;20.18;69.65;98980.48;1740245;79;20976;-87
2022/10/07 11:50:25;;;;;;;11.63;4.40;;;;;;;20.28;69.73;98975.48;1738359;79;21149;-87